createdAt,value
2023-12-30T00:01:28.446Z,100789.94
2023-12-30T00:03:59.437Z,100776.94
2023-12-30T00:06:27.798Z,100793.41
2023-12-30T00:08:56.062Z,100805.19
2023-12-30T00:11:24.297Z,100798.03
2023-12-30T00:13:55.451Z,100812.66
2023-12-30T00:16:23.857Z,100809.75
2023-12-30T00:18:53.922Z,100815.19
2023-12-30T00:21:22.781Z,100811.72
2023-12-30T00:23:51.566Z,100811.66
2023-12-30T00:26:24.038Z,100816.94
2023-12-30T00:28:52.530Z,100815.59
2023-12-30T00:31:36.323Z,100806.94
2023-12-30T00:34:08.150Z,100809.50
2023-12-30T00:36:36.529Z,100814.91
2023-12-30T00:39:05.183Z,100826.22
2023-12-30T00:41:33.437Z,100817.66
2023-12-30T00:44:04.623Z,100827.19
2023-12-30T00:46:35.122Z,100839.53
2023-12-30T00:49:09.947Z,100837.25
2023-12-30T00:51:44.311Z,100842.06
2023-12-30T00:54:18.761Z,100854.44
2023-12-30T00:56:47.462Z,100846.16
2023-12-30T00:59:21.606Z,100851.03
2023-12-30T01:01:55.861Z,100858.22
2023-12-30T01:04:25.652Z,100856.13
2023-12-30T01:06:57.057Z,100860.78
2023-12-30T01:09:28.148Z,100867.56
2023-12-30T01:11:56.426Z,100865.84
2023-12-30T01:14:24.736Z,100878.88
2023-12-30T01:16:53.044Z,100875.22
2023-12-30T01:19:21.382Z,100884.81
2023-12-30T01:21:53.920Z,100871.56
2023-12-30T01:24:27.280Z,100880.28
2023-12-30T01:26:58.360Z,100882.72
2023-12-30T01:29:30.438Z,100874.63
2023-12-30T01:32:05.300Z,100886.78
2023-12-30T01:34:33.615Z,100894.31
2023-12-30T01:37:04.170Z,100893.19
2023-12-30T01:39:32.533Z,100903.91
2023-12-30T01:42:04.112Z,100894.63
2023-12-30T01:44:32.394Z,100905.13
2023-12-30T01:47:01.783Z,100909.81
2023-12-30T01:49:30.443Z,100916.28
2023-12-30T01:52:00.501Z,100928.78
2023-12-30T01:54:30.621Z,100923.78
2023-12-30T01:57:01.523Z,100924.28
2023-12-30T01:59:33.060Z,100940.88
2023-12-30T02:02:01.913Z,100939.31
2023-12-30T02:04:31.593Z,100942.91
2023-12-30T02:07:00.013Z,100925.59
2023-12-30T02:09:30.233Z,100934.94
2023-12-30T02:12:01.737Z,100938.09
2023-12-30T02:14:32.097Z,100935.56
2023-12-30T02:17:01.130Z,100930.88
2023-12-30T02:19:29.541Z,100933.47
2023-12-30T02:22:03.659Z,100941.44
2023-12-30T02:24:33.300Z,100941.50
2023-12-30T02:27:02.103Z,100946.47
2023-12-30T02:29:30.346Z,100939.41
2023-12-30T02:31:58.620Z,100941.13
2023-12-30T02:34:32.989Z,100946.78
2023-12-30T02:37:01.343Z,100953.16
2023-12-30T02:39:29.620Z,100943.31
2023-12-30T02:41:59.267Z,100951.00
2023-12-30T02:44:34.707Z,100951.53
2023-12-30T02:47:02.989Z,100947.69
2023-12-30T02:49:51.837Z,100948.25
2023-12-30T02:52:20.222Z,100947.72
2023-12-30T02:54:51.366Z,100943.59
2023-12-30T02:57:24.403Z,100940.84
2023-12-30T02:59:52.700Z,100944.38
2023-12-30T03:02:24.914Z,100960.84
2023-12-30T03:04:56.272Z,100948.72
2023-12-30T03:07:28.108Z,100952.88
2023-12-30T03:09:59.329Z,100950.31
2023-12-30T03:12:29.135Z,100960.97
2023-12-30T03:15:04.745Z,100952.03
2023-12-30T03:17:33.076Z,100961.03
2023-12-30T03:20:01.441Z,100960.66
2023-12-30T03:22:33.706Z,100968.66
2023-12-30T03:25:02.360Z,100958.63
2023-12-30T03:27:34.534Z,100979.75
2023-12-30T03:30:03.086Z,100976.41
2023-12-30T03:32:31.948Z,100971.63
2023-12-30T03:35:08.056Z,100974.69
2023-12-30T03:37:39.467Z,100964.16
2023-12-30T03:40:09.683Z,100961.91
2023-12-30T03:42:44.852Z,100965.03
2023-12-30T03:45:27.023Z,100971.34
2023-12-30T03:47:55.368Z,100971.69
2023-12-30T03:50:23.879Z,100976.31
2023-12-30T03:52:52.467Z,100976.00
2023-12-30T03:55:20.916Z,100976.56
2023-12-30T03:57:54.915Z,100971.53
2023-12-30T04:00:23.278Z,100978.03
2023-12-30T04:02:54.452Z,100976.69
2023-12-30T04:05:26.231Z,100983.63
2023-12-30T04:07:54.601Z,100976.72
2023-12-30T04:10:28.925Z,100977.56
2023-12-30T04:12:58.655Z,100982.81
2023-12-30T04:15:26.949Z,100992.00
2023-12-30T04:18:01.067Z,100988.47
2023-12-30T04:20:32.438Z,100993.84
2023-12-30T04:23:01.320Z,100991.84
2023-12-30T04:25:32.523Z,100992.63
2023-12-30T04:28:05.026Z,101003.28
2023-12-30T04:30:33.605Z,101000.09
2023-12-30T04:33:02.113Z,100988.56
2023-12-30T04:35:30.603Z,100999.81
2023-12-30T04:38:05.062Z,101001.84
2023-12-30T04:40:33.450Z,101005.09
2023-12-30T04:43:03.733Z,101007.81
2023-12-30T04:45:32.334Z,101012.00
2023-12-30T04:48:03.183Z,101000.28
2023-12-30T04:50:34.643Z,101010.91
2023-12-30T04:53:06.377Z,101017.50
2023-12-30T04:55:35.138Z,101011.06
2023-12-30T04:58:05.346Z,101003.22
2023-12-30T05:00:36.129Z,101004.47
2023-12-30T05:03:05.241Z,101007.84
2023-12-30T05:05:33.706Z,101002.75
2023-12-30T05:08:07.019Z,101014.28
2023-12-30T05:10:35.891Z,101017.66
2023-12-30T05:13:07.420Z,101010.34
2023-12-30T05:15:38.984Z,101018.25
2023-12-30T05:18:07.965Z,101016.06
2023-12-30T05:20:39.573Z,101022.06
2023-12-30T05:23:08.194Z,101027.22
2023-12-30T05:25:36.864Z,101029.19
2023-12-30T05:28:06.753Z,101029.63
2023-12-30T05:30:41.384Z,101030.03
2023-12-30T05:33:09.831Z,101026.47
2023-12-30T05:35:38.805Z,101033.19
2023-12-30T05:38:13.481Z,101035.78
2023-12-30T05:40:41.952Z,101042.81
2023-12-30T05:43:11.652Z,101047.31
2023-12-30T05:45:40.328Z,101042.63
2023-12-30T05:48:09.183Z,101057.72
2023-12-30T05:50:40.541Z,101053.63
2023-12-30T05:53:12.199Z,101050.91
2023-12-30T05:55:44.277Z,101051.34
2023-12-30T05:58:14.052Z,101057.75
2023-12-30T06:00:44.823Z,101053.00
2023-12-30T06:03:14.047Z,101057.88
2023-12-30T06:05:48.249Z,101057.25
2023-12-30T06:08:18.603Z,101062.81
2023-12-30T06:10:52.648Z,101063.94
2023-12-30T06:13:28.745Z,101071.59
2023-12-30T06:15:58.292Z,101076.19
2023-12-30T06:18:32.746Z,101081.22
2023-12-30T06:21:07.926Z,101084.28
2023-12-30T06:23:36.188Z,101086.06
2023-12-30T06:26:07.251Z,101084.31
2023-12-30T06:28:37.231Z,101091.91
2023-12-30T06:31:08.815Z,101083.28
2023-12-30T06:33:37.679Z,101087.72
2023-12-30T06:36:07.915Z,101094.66
2023-12-30T06:38:42.001Z,101083.78
2023-12-30T06:41:13.390Z,101095.38
2023-12-30T06:43:49.289Z,101100.44
2023-12-30T06:46:22.897Z,101103.56
2023-12-30T06:48:51.451Z,101114.31
2023-12-30T06:51:25.959Z,101113.13
2023-12-30T06:53:54.213Z,101116.09
2023-12-30T06:56:25.740Z,101115.03
2023-12-30T06:58:55.494Z,101106.31
2023-12-30T07:01:25.447Z,101113.00
2023-12-30T07:03:54.200Z,101113.94
2023-12-30T07:06:22.879Z,101115.88
2023-12-30T07:08:57.494Z,101123.22
2023-12-30T07:11:26.021Z,101124.75
2023-12-30T07:13:59.081Z,101121.38
2023-12-30T07:19:23.407Z,101132.13
2023-12-30T07:21:52.120Z,101142.84
2023-12-30T07:24:20.807Z,101138.50
2023-12-30T07:26:55.162Z,101130.81
2023-12-30T07:29:27.821Z,101129.97
2023-12-30T07:31:56.400Z,101138.53
2023-12-30T07:34:27.901Z,101141.81
2023-12-30T07:37:02.574Z,101140.78
2023-12-30T07:39:30.891Z,101148.28
2023-12-30T07:41:59.164Z,101146.44
2023-12-30T07:44:30.674Z,101150.69
2023-12-30T07:47:01.890Z,101151.03
2023-12-30T07:49:30.234Z,101151.44
2023-12-30T07:52:01.100Z,101156.41
2023-12-30T07:54:29.990Z,101154.88
2023-12-30T07:56:58.281Z,101163.13
2023-12-30T07:59:27.901Z,101162.66
2023-12-30T08:01:57.744Z,101159.47
2023-12-30T08:04:32.499Z,101166.78
2023-12-30T08:07:04.108Z,101166.22
2023-12-30T08:09:32.449Z,101165.44
2023-12-30T08:12:03.761Z,101167.28
2023-12-30T08:14:33.408Z,101179.44
2023-12-30T08:17:02.463Z,101177.13
2023-12-30T08:19:30.822Z,101177.56
2023-12-30T08:21:59.422Z,101180.75
2023-12-30T08:24:33.635Z,101182.50
2023-12-30T08:27:01.932Z,101183.19
2023-12-30T08:29:34.832Z,101184.06
2023-12-30T08:32:03.139Z,101185.66
2023-12-30T08:34:34.616Z,101185.59
2023-12-30T08:37:09.380Z,101193.66
2023-12-30T08:39:41.805Z,101191.31
2023-12-30T08:42:10.958Z,101195.91
2023-12-30T08:44:45.205Z,101197.34
2023-12-30T08:47:15.853Z,101199.28
2023-12-30T08:49:50.557Z,101197.19
2023-12-30T08:52:21.789Z,101203.97
2023-12-30T08:54:52.974Z,101200.06
2023-12-30T08:57:24.309Z,101204.94
2023-12-30T08:59:53.962Z,101208.19
2023-12-30T09:02:24.086Z,101207.13
2023-12-30T09:04:52.399Z,101203.41
2023-12-30T09:07:23.829Z,101205.41
2023-12-30T09:09:52.116Z,101211.59
2023-12-30T09:12:23.669Z,101215.03
2023-12-30T09:14:53.598Z,101221.31
2023-12-30T09:17:25.360Z,101222.28
2023-12-30T09:19:53.991Z,101219.13
2023-12-30T09:22:22.889Z,101216.00
2023-12-30T09:24:55.242Z,101228.00
2023-12-30T09:27:23.872Z,101226.88
2023-12-30T09:29:53.834Z,101226.91
2023-12-30T09:32:28.432Z,101229.91
2023-12-30T09:34:57.954Z,101223.81
2023-12-30T09:37:26.643Z,101226.09
2023-12-30T09:39:55.406Z,101222.53
2023-12-30T09:42:29.907Z,101227.84
2023-12-30T09:45:02.741Z,101225.03
2023-12-30T09:47:33.486Z,101234.72
2023-12-30T09:50:08.669Z,101231.38
2023-12-30T09:52:37.171Z,101230.28
2023-12-30T09:55:06.594Z,101244.47
2023-12-30T09:57:52.403Z,101241.00
2023-12-30T10:00:27.522Z,101255.78
2023-12-30T10:02:56.508Z,101250.44
2023-12-30T10:05:30.442Z,101251.66
2023-12-30T10:08:03.268Z,101258.97
2023-12-30T10:10:45.192Z,101253.25
2023-12-30T10:13:18.719Z,101252.38
2023-12-30T10:15:48.425Z,101240.06
2023-12-30T10:18:17.278Z,101248.81
2023-12-30T10:20:49.633Z,101242.50
2023-12-30T10:23:17.932Z,101234.19
2023-12-30T10:25:49.471Z,101242.16
2023-12-30T10:28:18.696Z,101232.25
2023-12-30T10:31:09.328Z,101229.78
2023-12-30T10:33:38.189Z,101227.72
2023-12-30T10:36:08.944Z,101237.84
2023-12-30T10:38:38.595Z,101232.19
2023-12-30T10:41:07.064Z,101234.31
2023-12-30T10:43:36.143Z,101230.97
2023-12-30T10:46:15.790Z,101227.63
2023-12-30T10:48:54.332Z,101232.41
2023-12-30T10:51:27.269Z,101227.34
2023-12-30T10:54:03.305Z,101227.63
2023-12-30T10:56:48.038Z,101223.53
2023-12-30T10:59:17.236Z,101232.25
2023-12-30T11:01:47.761Z,101215.41
2023-12-30T11:04:17.043Z,101216.88
2023-12-30T11:06:53.906Z,101224.03
2023-12-30T11:09:25.767Z,101223.50
2023-12-30T11:11:56.722Z,101219.16
2023-12-30T11:14:25.280Z,101220.81
2023-12-30T11:16:58.737Z,101229.03
2023-12-30T11:19:29.216Z,101226.88
2023-12-30T11:22:06.890Z,101222.72
2023-12-30T11:24:43.451Z,101231.44
2023-12-30T11:27:12.703Z,101223.50
2023-12-30T11:29:46.384Z,101219.25
2023-12-30T11:32:20.482Z,101219.41
2023-12-30T11:34:54.955Z,101214.09
2023-12-30T11:37:24.260Z,101216.50
2023-12-30T11:40:05.238Z,101216.78
2023-12-30T11:42:42.005Z,101220.63
2023-12-30T11:45:23.352Z,101206.63
2023-12-30T11:47:56.407Z,101200.69
2023-12-30T11:50:24.733Z,101191.75
2023-12-30T11:52:56.301Z,101190.50
2023-12-30T11:55:25.286Z,101181.19
2023-12-30T11:57:53.584Z,101177.38
2023-12-30T12:00:22.683Z,101172.63
2023-12-30T12:02:55.825Z,101173.56
2023-12-30T12:05:24.251Z,101166.22
2023-12-30T12:07:52.551Z,101171.22
2023-12-30T12:10:21.201Z,101162.91
2023-12-30T12:12:53.022Z,101162.47
2023-12-30T12:15:27.779Z,101165.53
2023-12-30T12:17:58.696Z,101158.25
2023-12-30T12:20:27.619Z,101153.94
2023-12-30T12:22:56.353Z,101159.53
2023-12-30T12:25:27.676Z,101142.84
2023-12-30T12:27:59.559Z,101146.06
2023-12-30T12:30:31.217Z,101141.41
2023-12-30T12:33:04.336Z,101136.56
2023-12-30T12:35:33.263Z,101139.84
2023-12-30T12:38:08.046Z,101142.00
2023-12-30T12:40:36.790Z,101132.97
2023-12-30T12:43:08.454Z,101142.19
2023-12-30T12:45:40.046Z,101127.38
2023-12-30T12:48:10.403Z,101140.19
2023-12-30T12:50:44.062Z,101140.53
2023-12-30T12:53:15.747Z,101129.13
2023-12-30T12:55:44.493Z,101131.38
2023-12-30T12:58:16.702Z,101125.22
2023-12-30T13:00:45.310Z,101117.66
2023-12-30T13:03:18.460Z,101118.22
2023-12-30T13:05:47.509Z,101117.75
2023-12-30T13:08:18.509Z,101110.53
2023-12-30T13:10:51.203Z,101108.81
2023-12-30T13:13:20.446Z,101101.06
2023-12-30T13:15:49.106Z,101107.13
2023-12-30T13:18:23.079Z,101098.84
2023-12-30T13:20:51.688Z,101089.97
2023-12-30T13:23:28.848Z,101090.31
2023-12-30T13:25:58.677Z,101092.53
2023-12-30T13:28:32.173Z,101079.09
2023-12-30T13:31:10.170Z,101075.91
2023-12-30T13:34:00.292Z,101075.81
2023-12-30T13:36:30.424Z,101073.44
2023-12-30T13:39:07.121Z,101073.78
2023-12-30T13:41:37.110Z,101068.97
2023-12-30T13:44:15.026Z,101068.81
2023-12-30T13:47:00.529Z,101073.25
2023-12-30T13:50:01.079Z,101074.44
2023-12-30T13:52:29.060Z,101076.47
2023-12-30T13:54:59.654Z,101071.25
2023-12-30T13:57:30.563Z,101066.31
2023-12-30T13:59:59.513Z,101069.44
2023-12-30T14:02:40.805Z,101069.44
2023-12-30T14:05:18.624Z,101061.91
2023-12-30T14:07:52.243Z,101061.66
2023-12-30T14:10:20.579Z,101067.75
2023-12-30T14:13:00.620Z,101054.22
2023-12-30T14:15:29.474Z,101051.19
2023-12-30T14:17:58.059Z,101053.53
2023-12-30T14:20:28.123Z,101047.31
2023-12-30T14:22:56.878Z,101049.22
2023-12-30T14:25:25.200Z,101055.19
2023-12-30T14:27:53.601Z,101056.91
2023-12-30T14:30:25.487Z,101059.03
2023-12-30T14:32:53.855Z,101048.59
2023-12-30T14:35:23.096Z,101047.13
2023-12-30T14:37:55.747Z,101054.38
2023-12-30T14:40:24.810Z,101052.41
2023-12-30T14:42:56.317Z,101053.31
2023-12-30T14:45:27.468Z,101045.91
2023-12-30T14:47:55.807Z,101050.53
2023-12-30T14:50:24.120Z,101047.22
2023-12-30T14:52:52.441Z,101040.03
2023-12-30T14:55:22.143Z,101032.56
2023-12-30T14:57:50.666Z,101029.59
2023-12-30T15:00:23.263Z,101030.56
2023-12-30T15:02:56.084Z,101022.13
2023-12-30T15:05:24.854Z,101020.00
2023-12-30T15:07:57.743Z,101020.16
2023-12-30T15:10:28.124Z,101014.91
2023-12-30T15:12:59.725Z,101005.63
2023-12-30T15:15:28.144Z,101010.91
2023-12-30T15:17:56.520Z,101014.53
2023-12-30T15:20:38.794Z,101011.13
2023-12-30T15:23:07.071Z,100999.13
2023-12-30T15:25:38.021Z,101002.19
2023-12-30T15:28:08.897Z,100995.09
2023-12-30T15:30:37.464Z,100995.09
2023-12-30T15:33:06.680Z,100982.47
2023-12-30T15:35:38.845Z,100983.72
2023-12-30T15:38:07.149Z,100980.72
2023-12-30T15:40:42.321Z,100974.06
2023-12-30T15:43:11.270Z,100977.69
2023-12-30T15:45:39.813Z,100978.63
2023-12-30T15:48:08.977Z,100974.69
2023-12-30T15:50:37.621Z,100977.97
2023-12-30T15:53:06.555Z,100972.97
2023-12-30T15:55:35.098Z,100972.66
2023-12-30T15:58:12.499Z,100965.84
2023-12-30T16:00:43.915Z,100969.84
2023-12-30T16:03:16.008Z,100977.28
2023-12-30T16:05:44.562Z,100965.97
2023-12-30T16:08:17.263Z,100965.94
2023-12-30T16:10:51.953Z,100968.19
2023-12-30T16:13:24.677Z,100967.31
2023-12-30T16:15:58.046Z,100959.13
2023-12-30T16:18:26.571Z,100965.09
2023-12-30T16:20:57.353Z,100967.09
2023-12-30T16:23:31.416Z,100973.75
2023-12-30T16:25:59.810Z,100967.34
2023-12-30T16:28:29.503Z,100967.66
2023-12-30T16:31:07.091Z,100967.34
2023-12-30T16:33:44.444Z,100967.34
2023-12-30T16:36:16.619Z,100955.38
2023-12-30T16:38:45.371Z,100967.59
2023-12-30T16:41:15.025Z,100963.56
2023-12-30T16:43:45.060Z,100957.47
2023-12-30T16:46:20.027Z,100960.50
2023-12-30T16:48:48.846Z,100973.81
2023-12-30T16:51:23.389Z,100961.31
2023-12-30T16:53:51.681Z,100962.66
2023-12-30T16:56:20.452Z,100961.91
2023-12-30T16:58:59.773Z,100958.50
2023-12-30T17:01:30.933Z,100955.59
2023-12-30T17:03:59.618Z,100948.94
2023-12-30T17:06:34.766Z,100961.38
2023-12-30T17:09:08.654Z,100954.56
2023-12-30T17:11:40.823Z,100949.03
2023-12-30T17:14:11.906Z,100954.81
2023-12-30T17:16:40.925Z,100949.00
2023-12-30T17:19:11.535Z,100944.47
2023-12-30T17:21:40.133Z,100949.09
2023-12-30T17:24:15.896Z,100948.88
2023-12-30T17:26:47.193Z,100950.31
2023-12-30T17:29:17.239Z,100948.66
2023-12-30T17:31:51.374Z,100953.69
2023-12-30T17:34:20.741Z,100954.38
2023-12-30T17:36:57.898Z,100954.19
2023-12-30T17:39:26.913Z,100951.84
2023-12-30T17:41:55.647Z,100946.84
2023-12-30T17:44:29.124Z,100945.78
2023-12-30T17:46:57.548Z,100951.69
2023-12-30T17:49:28.874Z,100955.13
2023-12-30T17:52:03.607Z,100936.72
2023-12-30T17:54:37.437Z,100937.97
2023-12-30T17:57:07.027Z,100942.44
2023-12-30T17:59:36.979Z,100937.88
2023-12-30T18:02:05.909Z,100931.72
2023-12-30T18:04:34.532Z,100936.97
2023-12-30T18:07:03.169Z,100925.88
2023-12-30T18:09:31.763Z,100931.09
2023-12-30T18:12:00.868Z,100927.31
2023-12-30T18:14:30.120Z,100927.16
2023-12-30T18:16:59.132Z,100923.44
2023-12-30T18:19:27.744Z,100914.78
2023-12-30T18:21:59.855Z,100918.69
2023-12-30T18:24:31.642Z,100903.81
2023-12-30T18:27:00.270Z,100904.84
2023-12-30T18:29:28.866Z,100910.59
2023-12-30T18:31:57.411Z,100900.34
2023-12-30T18:34:36.491Z,100898.13
2023-12-30T18:37:06.649Z,100897.81
2023-12-30T18:39:35.224Z,100896.69
2023-12-30T18:42:05.778Z,100901.72
2023-12-30T18:44:34.296Z,100908.59
2023-12-30T18:47:06.466Z,100904.00
2023-12-30T18:49:36.433Z,100905.91
2023-12-30T18:52:05.184Z,100896.53
2023-12-30T18:54:33.744Z,100888.03
2023-12-30T18:57:05.337Z,100895.47
2023-12-30T18:59:36.691Z,100885.66
2023-12-30T19:02:05.709Z,100894.47
2023-12-30T19:04:37.822Z,100887.75
2023-12-30T19:07:22.212Z,100881.72
2023-12-30T19:09:53.652Z,100877.06
2023-12-30T19:12:26.206Z,100879.38
2023-12-30T19:14:55.828Z,100872.66
2023-12-30T19:17:30.058Z,100873.56
2023-12-30T19:20:09.191Z,100870.44
2023-12-30T19:22:37.810Z,100853.38
2023-12-30T19:25:07.523Z,100855.34
2023-12-30T19:27:35.835Z,100865.72
2023-12-30T19:30:10.962Z,100858.06
2023-12-30T19:32:39.293Z,100854.34
2023-12-30T19:35:11.343Z,100852.53
2023-12-30T19:37:43.243Z,100850.81
2023-12-30T19:40:13.217Z,100846.53
2023-12-30T19:42:41.795Z,100836.97
2023-12-30T19:45:13.153Z,100838.53
2023-12-30T19:47:41.991Z,100832.69
2023-12-30T19:50:17.961Z,100819.91
2023-12-30T19:52:55.679Z,100824.56
2023-12-30T19:55:27.056Z,100828.25
2023-12-30T19:57:58.434Z,100822.81
2023-12-30T20:00:29.387Z,100827.06
2023-12-30T20:03:09.598Z,100830.31
2023-12-30T20:05:39.582Z,100822.88
2023-12-30T20:08:13.511Z,100817.94
2023-12-30T20:10:41.878Z,100825.41
2023-12-30T20:13:16.339Z,100824.72
2023-12-30T20:15:44.929Z,100821.09
2023-12-30T20:18:13.474Z,100820.53
2023-12-30T20:20:43.198Z,100816.44
2023-12-30T20:23:11.923Z,100810.97
2023-12-30T20:25:40.749Z,100815.94
2023-12-30T20:28:10.394Z,100817.91
2023-12-30T20:30:38.813Z,100806.25
2023-12-30T20:33:12.228Z,100805.56
2023-12-30T20:35:41.972Z,100792.09
2023-12-30T20:38:13.364Z,100792.94
2023-12-30T20:40:46.798Z,100778.78
2023-12-30T20:43:15.544Z,100783.63
2023-12-30T20:45:50.904Z,100771.06
2023-12-30T20:48:19.297Z,100764.75
2023-12-30T20:50:49.353Z,100761.19
2023-12-30T20:53:24.320Z,100759.50
2023-12-30T20:55:58.525Z,100763.19
2023-12-30T20:58:27.540Z,100755.84
2023-12-30T21:00:55.924Z,100755.56
2023-12-30T21:03:24.261Z,100746.03
2023-12-30T21:05:53.996Z,100744.28
2023-12-30T21:08:22.484Z,100747.38
2023-12-30T21:10:50.853Z,100742.22
2023-12-30T21:13:19.575Z,100737.72
2023-12-30T21:15:50.343Z,100733.50
2023-12-30T21:18:21.742Z,100731.53
2023-12-30T21:20:50.921Z,100746.16
2023-12-30T21:23:22.853Z,100741.69
2023-12-30T21:25:55.636Z,100722.81
2023-12-30T21:28:29.393Z,100720.47
2023-12-30T21:31:03.749Z,100719.19
2023-12-30T21:33:32.881Z,100720.31
2023-12-30T21:36:08.559Z,100720.47
2023-12-30T21:38:40.995Z,100711.94
2023-12-30T21:41:09.572Z,100695.09
2023-12-30T21:43:41.695Z,100694.50
2023-12-30T21:46:10.082Z,100685.25
2023-12-30T21:48:42.413Z,100683.53
2023-12-30T21:51:12.679Z,100685.47
2023-12-30T21:53:46.472Z,100679.31
2023-12-30T21:56:16.133Z,100675.94
2023-12-30T21:58:44.512Z,100677.94
2023-12-30T22:01:12.886Z,100670.25
2023-12-30T22:03:41.260Z,100667.00
2023-12-30T22:06:09.556Z,100665.19
2023-12-30T22:08:51.727Z,100665.03
2023-12-30T22:11:23.068Z,100662.00
2023-12-30T22:13:54.510Z,100669.94
2023-12-30T22:16:22.899Z,100665.34
2023-12-30T22:18:54.041Z,100661.66
2023-12-30T22:21:22.626Z,100649.69
2023-12-30T22:23:55.267Z,100651.09
2023-12-30T22:26:26.410Z,100642.44
2023-12-30T22:28:54.675Z,100650.47
2023-12-30T22:31:25.809Z,100638.72
2023-12-30T22:33:54.229Z,100635.13
2023-12-30T22:36:34.704Z,100632.91
2023-12-30T22:39:11.312Z,100627.81
2023-12-30T22:41:39.656Z,100621.44
2023-12-30T22:44:07.961Z,100620.28
2023-12-30T22:46:43.807Z,100606.06
2023-12-30T22:49:18.330Z,100597.03
2023-12-30T22:51:53.228Z,100596.00
2023-12-30T22:54:23.188Z,100591.88
2023-12-30T22:56:55.090Z,100587.31
2023-12-30T22:59:23.350Z,100576.47
2023-12-30T23:01:54.701Z,100576.97
2023-12-30T23:04:23.301Z,100576.50
2023-12-30T23:06:54.428Z,100576.34
2023-12-30T23:09:24.217Z,100579.16
2023-12-30T23:11:52.550Z,100575.28
2023-12-30T23:14:23.737Z,100573.78
2023-12-30T23:16:52.128Z,100573.13
2023-12-30T23:19:23.231Z,100577.13
2023-12-30T23:21:56.907Z,100578.91
2023-12-30T23:24:29.051Z,100566.00
2023-12-30T23:27:00.571Z,100555.66
2023-12-30T23:29:29.429Z,100551.53
2023-12-30T23:31:57.703Z,100538.63
2023-12-30T23:34:36.367Z,100530.31
2023-12-30T23:37:11.269Z,100518.06
2023-12-30T23:39:49.963Z,100509.81
2023-12-30T23:42:21.412Z,100493.50
2023-12-30T23:44:52.580Z,100481.53
2023-12-30T23:47:23.767Z,100472.22
2023-12-30T23:49:52.162Z,100466.94
2023-12-30T23:52:23.490Z,100467.41
2023-12-30T23:54:56.300Z,100470.16
2023-12-30T23:57:24.564Z,100469.88
2023-12-30T23:59:52.867Z,100465.09
